Time;durP1;ratioP1;P1;durP2;ratioP2;P2;SDS_P1;SDS_P2;PMS_P1;PMS_P2;Temp;Humidity;BMP_temperature;BMP_pressure;BME280_temperature;BME280_humidity;BME280_pressure;Samples;Min_cycle;Max_cycle;Signal;HPM_P1;HPM_P2
2023/06/08 00:00:54;;;;;;;3.53;2.00;;;;;14.00;94081.00;;;;7386393;19;20168;-75
2023/06/08 00:03:22;;;;;;;2.15;1.95;;;;;14.00;94076.00;;;;7386641;19;20648;-74
2023/06/08 00:05:50;;;;;;;2.00;1.75;;;;;14.00;94081.00;;;;7387368;19;20133;-75
2023/06/08 00:08:25;;;;;;;2.58;2.22;;;;;14.00;94076.00;;;;7390128;19;20155;-75
2023/06/08 00:11:01;;;;;;;2.60;2.13;;;;;14.00;94070.00;;;;7393166;19;20139;-76
2023/06/08 00:13:36;;;;;;;3.22;2.15;;;;;13.80;94076.00;;;;7393099;19;20148;-76
2023/06/08 00:16:05;;;;;;;2.10;1.90;;;;;13.80;94072.00;;;;7394020;19;20152;-74
2023/06/08 00:18:41;;;;;;;2.03;1.90;;;;;13.70;94012.00;;;;7394026;19;20152;-75
2023/06/08 00:21:12;;;;;;;2.45;2.05;;;;;13.60;94064.00;;;;7392847;19;20574;-75
2023/06/08 00:23:47;;;;;;;3.03;2.13;;;;;13.70;94060.00;;;;7394632;19;20141;-74
2023/06/08 00:26:15;;;;;;;2.20;2.00;;;;;13.80;94065.00;;;;7393670;19;20143;-74
2023/06/08 00:28:49;;;;;;;3.97;2.15;;;;;13.80;94069.00;;;;7393648;19;20143;-76
2023/06/08 00:31:23;;;;;;;2.08;1.90;;;;;13.70;94059.00;;;;7390711;19;20155;-75
2023/06/08 00:33:52;;;;;;;2.20;2.00;;;;;13.60;94065.00;;;;7393805;19;20609;-75
2023/06/08 00:36:26;;;;;;;3.80;2.22;;;;;13.60;94059.00;;;;7394893;19;20156;-75
2023/06/08 00:38:54;;;;;;;5.32;1.92;;;;;13.50;94064.00;;;;7391721;19;20535;-76
2023/06/08 00:41:35;;;;;;;2.28;2.08;;;;;13.30;94070.00;;;;7395023;19;20128;-76
2023/06/08 00:44:06;;;;;;;2.30;2.10;;;;;13.30;94067.00;;;;7393309;19;20148;-75
2023/06/08 00:46:42;;;;;;;4.40;2.10;;;;;13.30;94059.00;;;;7392240;19;20152;-75
2023/06/08 00:49:18;;;;;;;2.80;2.40;;;;;13.30;94061.00;;;;7393757;19;20184;-75
2023/06/08 00:51:52;;;;;;;2.65;2.05;;;;;13.10;94065.00;;;;7391924;19;20582;-73
2023/06/08 00:54:30;;;;;;;2.30;2.10;;;;;13.00;94065.00;;;;7393446;19;20158;-75
2023/06/08 00:57:05;;;;;;;2.30;2.10;;;;;13.10;94055.00;;;;7393434;19;20140;-74
2023/06/08 00:59:40;;;;;;;4.72;2.55;;;;;13.20;94055.00;;;;7393196;19;20148;-75
2023/06/08 01:02:17;;;;;;;2.60;2.30;;;;;13.40;93987.00;;;;7386605;19;20159;-75
2023/06/08 01:04:53;;;;;;;4.78;2.35;;;;;13.50;94051.00;;;;7385718;19;20141;-76
2023/06/08 01:07:40;;;;;;;3.40;2.40;;;;;13.50;94045.00;;;;7394405;19;20489;-76
2023/06/08 01:10:33;;;;;;;2.53;2.33;;;;;13.60;94048.00;;;;7394006;19;20125;-77
2023/06/08 01:13:16;;;;;;;2.58;2.25;;;;;13.70;94046.00;;;;7392217;19;20969;-74
2023/06/08 01:15:56;;;;;;;2.65;2.30;;;;;13.80;94047.00;;;;7394159;19;20148;-75
2023/06/08 01:18:27;;;;;;;2.88;2.25;;;;;13.80;94047.00;;;;7394140;19;20645;-74
2023/06/08 01:21:08;;;;;;;4.10;2.25;;;;;13.80;94049.00;;;;7391657;19;21398;-78
2023/06/08 01:24:14;;;;;;;2.50;2.30;;;;;13.80;94049.00;;;;7392845;19;20181;-77
2023/06/08 01:26:49;;;;;;;3.83;2.15;;;;;13.70;94050.00;;;;7391399;19;20188;-77
2023/06/08 01:29:33;;;;;;;2.95;2.13;;;;;13.80;94047.00;;;;7394235;19;20593;-77
2023/06/08 01:32:01;;;;;;;3.15;2.10;;;;;13.70;94047.00;;;;7391059;19;20125;-76
2023/06/08 01:34:35;;;;;;;2.88;2.40;;;;;13.60;94045.00;;;;7392300;19;20588;-76
2023/06/08 01:37:23;;;;;;;2.00;1.90;;;;;13.60;94038.00;;;;7392540;19;20597;-77
2023/06/08 01:40:25;;;;;;;2.63;2.35;;;;;13.60;94045.00;;;;7392874;19;20530;-75
2023/06/08 01:43:01;;;;;;;2.72;2.47;;;;;13.60;94039.00;;;;7393075;19;20124;-76
2023/06/08 01:45:45;;;;;;;2.30;2.10;;;;;13.60;94040.00;;;;7393118;19;20161;-76
2023/06/08 01:48:14;;;;;;;2.30;2.10;;;;;13.60;94038.00;;;;7391856;19;20228;-76
2023/06/08 01:50:50;;;;;;;2.60;2.40;;;;;13.50;94038.00;;;;7393284;19;20151;-76
2023/06/08 01:53:19;;;;;;;2.38;2.17;;;;;13.60;94039.00;;;;7394477;19;20225;-76
2023/06/08 01:55:50;;;;;;;2.78;2.50;;;;;13.60;93972.00;;;;7393549;19;20117;-77
2023/06/08 01:58:24;;;;;;;3.80;2.70;;;;;13.60;94036.00;;;;7391430;19;20196;-77
2023/06/08 02:00:54;;;;;;;2.42;2.22;;;;;13.50;94042.00;;;;7390929;19;20149;-76
2023/06/08 02:03:28;;;;;;;4.28;2.10;;;;;13.50;94035.00;;;;7390945;19;20124;-76
2023/06/08 02:05:56;;;;;;;3.08;2.50;;;;;13.60;94030.00;;;;7389210;19;20157;-75
2023/06/08 02:08:30;;;;;;;2.50;2.30;;;;;13.70;94035.00;;;;7391117;19;20120;-75
2023/06/08 02:11:05;;;;;;;2.50;2.30;;;;;13.60;94026.00;;;;7392322;19;20661;-76
2023/06/08 02:13:35;;;;;;;3.10;2.50;;;;;13.50;94027.00;;;;7389617;19;20481;-76
2023/06/08 02:16:10;;;;;;;4.05;2.47;;;;;13.50;94027.00;;;;7390007;19;20143;-75
2023/06/08 02:18:40;;;;;;;3.60;2.63;;;;;13.40;94030.00;;;;7390469;19;20152;-75
2023/06/08 02:21:14;;;;;;;3.88;2.67;;;;;13.30;94027.00;;;;7390418;19;20600;-75
2023/06/08 02:23:42;;;;;;;3.22;2.80;;;;;13.20;94032.00;;;;7389977;19;20220;-75
2023/06/08 02:26:16;;;;;;;4.43;2.60;;;;;13.20;94033.00;;;;7390690;19;20129;-76
2023/06/08 02:28:44;;;;;;;3.17;2.67;;;;;13.20;94034.00;;;;7389249;19;20153;-75
2023/06/08 02:31:18;;;;;;;3.08;2.78;;;;;13.10;94034.00;;;;7388880;19;20469;-77
2023/06/08 02:33:52;;;;;;;3.70;2.85;;;;;13.20;94031.00;;;;7392728;19;20581;-74
2023/06/08 02:36:31;;;;;;;3.72;3.28;;;;;13.10;94029.00;;;;7390910;19;20179;-76
2023/06/08 02:39:05;;;;;;;4.78;3.45;;;;;13.20;94029.00;;;;7389832;19;20137;-76
2023/06/08 02:41:45;;;;;;;3.88;3.47;;;;;13.20;94030.00;;;;7390447;19;20140;-75
2023/06/08 02:44:13;;;;;;;3.20;2.90;;;;;13.10;94031.00;;;;7391050;19;20183;-76
2023/06/08 02:46:47;;;;;;;3.50;3.20;;;;;13.10;94032.00;;;;7391873;19;20125;-75
2023/06/08 02:49:21;;;;;;;4.95;3.38;;;;;13.10;94027.00;;;;7391525;19;20128;-75
2023/06/08 02:51:55;;;;;;;4.30;3.28;;;;;13.20;94027.00;;;;7389278;19;20127;-75
2023/06/08 02:54:30;;;;;;;3.75;3.35;;;;;13.30;94019.00;;;;7391655;19;20147;-77
2023/06/08 02:56:58;;;;;;;3.08;2.78;;;;;13.30;94018.00;;;;7389765;19;20618;-76
2023/06/08 02:59:32;;;;;;;6.50;2.85;;;;;13.30;94021.00;;;;7389860;19;20156;-76
2023/06/08 03:02:08;;;;;;;3.88;3.00;;;;;13.30;94019.00;;;;7388517;19;20171;-75
2023/06/08 03:04:37;;;;;;;3.00;2.40;;;;;13.30;94019.00;;;;7388592;19;20771;-75
2023/06/08 03:07:17;;;;;;;4.88;2.55;;;;;13.40;94021.00;;;;7389657;19;20152;-75
2023/06/08 03:09:46;;;;;;;2.75;2.42;;;;;13.50;94012.00;;;;7390386;19;20476;-76
2023/06/08 03:12:22;;;;;;;2.83;2.13;;;;;13.50;94006.00;;;;7389992;19;20124;-75
2023/06/08 03:14:50;;;;;;;2.72;2.50;;;;;13.50;94005.00;;;;7388281;19;20156;-75
2023/06/08 03:17:24;;;;;;;2.63;2.38;;;;;13.60;94005.00;;;;7389105;19;20128;-75
2023/06/08 03:19:53;;;;;;;3.78;2.60;;;;;13.60;94003.00;;;;7389037;19;20209;-74
2023/06/08 03:22:34;;;;;;;3.00;2.67;;;;;13.70;94006.00;;;;7387044;19;20647;-75
2023/06/08 03:25:03;;;;;;;2.60;2.40;;;;;13.70;94007.00;;;;7389618;19;20131;-72
2023/06/08 03:27:37;;;;;;;4.10;2.40;;;;;13.70;93999.00;;;;7387796;19;20148;-75
2023/06/08 03:30:12;;;;;;;3.80;2.08;;;;;13.70;94007.00;;;;7388117;19;20129;-73
2023/06/08 03:32:51;;;;;;;2.50;2.30;;;;;13.70;94014.00;;;;7387320;19;20183;-75
2023/06/08 03:35:26;;;;;;;3.92;2.45;;;;;13.80;94012.00;;;;7387638;19;20150;-76
2023/06/08 03:38:00;;;;;;;2.67;2.47;;;;;14.00;94006.00;;;;7388325;19;20131;-74
2023/06/08 03:40:42;;;;;;;2.35;2.15;;;;;14.20;94011.00;;;;7384641;19;20154;-74
2023/06/08 03:43:34;;;;;;;4.40;2.20;;;;;14.30;94008.00;;;;7385286;19;20490;-75
2023/06/08 03:46:03;;;;;;;2.78;2.40;;;;;14.40;94004.00;;;;7388848;19;20193;-76
2023/06/08 03:48:38;;;;;;;3.45;2.38;;;;;14.50;94004.00;;;;7386932;19;20462;-73
2023/06/08 03:51:06;;;;;;;3.35;2.40;;;;;14.60;94006.00;;;;7385688;19;20180;-73
2023/06/08 03:53:40;;;;;;;2.40;2.20;;;;;14.80;94006.00;;;;7388960;19;20486;-74
2023/06/08 03:56:15;;;;;;;2.83;2.28;;;;;15.00;94007.00;;;;7388206;19;20595;-75
2023/06/08 03:58:51;;;;;;;2.53;2.30;;;;;15.20;94000.00;;;;7385936;19;20137;-74
2023/06/08 04:01:27;;;;;;;2.30;2.10;;;;;15.30;94003.00;;;;7368732;19;20259;-74
2023/06/08 04:04:03;;;;;;;4.30;2.60;;;;;15.40;93939.00;;;;7358411;19;21015;-76
2023/06/08 04:06:33;;;;;;;3.45;2.20;;;;;15.40;94007.00;;;;7367263;19;20149;-74
2023/06/08 04:09:08;;;;;;;3.38;2.40;;;;;15.40;94000.00;;;;7367225;19;20603;-76
2023/06/08 04:11:36;;;;;;;3.42;2.30;;;;;15.50;94005.00;;;;7370871;19;20212;-73
2023/06/08 04:14:20;;;;;;;3.60;2.70;;;;;15.40;94007.00;;;;7370573;19;20220;-73
2023/06/08 04:16:55;;;;;;;3.30;2.33;;;;;15.50;94006.00;;;;7369885;19;20124;-73
2023/06/08 04:19:30;;;;;;;7.30;2.50;;;;;15.60;94020.00;;;;7371942;19;20140;-74
2023/06/08 04:21:59;;;;;;;3.40;2.60;;;;;15.40;94020.00;;;;7370194;19;20125;-75
2023/06/08 04:24:35;;;;;;;3.30;2.67;;;;;15.50;94022.00;;;;7368743;19;20141;-74
2023/06/08 04:27:06;;;;;;;2.40;2.20;;;;;15.50;94022.00;;;;7369560;19;20149;-74
2023/06/08 04:29:41;;;;;;;2.30;2.10;;;;;15.50;94020.00;;;;7370178;19;20156;-74
2023/06/08 04:32:10;;;;;;;3.45;2.70;;;;;15.70;94012.00;;;;7365680;19;20661;-74
2023/06/08 04:34:45;;;;;;;2.90;2.63;;;;;15.90;94014.00;;;;7367291;19;20177;-77
2023/06/08 04:37:15;;;;;;;2.33;2.13;;;;;15.90;94012.00;;;;7366332;19;20128;-74
2023/06/08 04:39:56;;;;;;;2.78;2.20;;;;;15.70;94022.00;;;;7366809;19;20180;-76
2023/06/08 04:42:33;;;;;;;8.02;2.10;;;;;15.70;94022.00;;;;7366043;19;20140;-75
2023/06/08 04:45:08;;;;;;;3.67;2.10;;;;;15.50;94020.00;;;;7367379;19;20133;-75
2023/06/08 04:47:43;;;;;;;4.32;2.22;;;;;15.30;94022.00;;;;7367105;19;20140;-74
2023/06/08 04:50:18;;;;;;;2.53;2.33;;;;;15.30;94020.00;;;;7368486;19;20142;-74
2023/06/08 04:52:47;;;;;;;4.85;2.28;;;;;15.20;94017.00;;;;7364659;19;20527;-75
2023/06/08 04:55:29;;;;;;;3.42;2.58;;;;;15.00;94022.00;;;;7369327;19;20151;-74
2023/06/08 04:57:57;;;;;;;3.80;2.50;;;;;15.00;94022.00;;;;7374412;19;20144;-76
2023/06/08 05:00:32;;;;;;;3.47;2.70;;;;;14.90;94020.00;;;;7374970;19;20243;-74
2023/06/08 05:03:09;;;;;;;2.92;2.60;;;;;14.90;94029.00;;;;7373367;19;20588;-75
2023/06/08 05:05:43;;;;;;;3.38;2.80;;;;;14.80;94023.00;;;;7372956;19;20884;-76
2023/06/08 05:08:11;;;;;;;3.05;2.60;;;;;14.90;94025.00;;;;7374267;19;20129;-76
2023/06/08 05:10:45;;;;;;;3.08;2.72;;;;;14.80;94024.00;;;;7370115;19;20437;-76
2023/06/08 05:13:13;;;;;;;3.45;2.70;;;;;14.90;94028.00;;;;7371857;19;20653;-76
2023/06/08 05:15:47;;;;;;;3.33;2.40;;;;;14.90;94034.00;;;;7375611;19;20121;-77
2023/06/08 05:18:15;;;;;;;6.60;2.95;;;;;14.70;94026.00;;;;7374514;19;20121;-77
2023/06/08 05:20:50;;;;;;;5.88;3.50;;;;;14.80;94019.00;;;;7374614;19;20134;-76
2023/06/08 05:23:17;;;;;;;3.25;2.92;;;;;14.70;94010.00;;;;7374134;19;20239;-76
2023/06/08 05:25:52;;;;;;;5.63;3.22;;;;;14.80;94027.00;;;;7374201;19;20533;-74
2023/06/08 05:28:19;;;;;;;5.45;3.25;;;;;14.80;94026.00;;;;7372183;19;20709;-78
2023/06/08 05:30:54;;;;;;;3.10;2.75;;;;;14.80;94004.00;;;;7372407;19;20641;-76
2023/06/08 05:33:28;;;;;;;3.60;2.95;;;;;14.80;94013.00;;;;7374174;19;21141;-77
2023/06/08 05:36:02;;;;;;;4.53;3.10;;;;;14.70;94021.00;;;;7372442;19;20141;-76
2023/06/08 05:38:32;;;;;;;3.83;3.10;;;;;14.70;94013.00;;;;7374274;19;20121;-76
2023/06/08 05:41:13;;;;;;;3.88;2.92;;;;;14.80;94013.00;;;;7373673;19;20156;-77
2023/06/08 05:43:42;;;;;;;5.18;3.88;;;;;15.20;94003.00;;;;7372470;19;20723;-76
2023/06/08 05:46:18;;;;;;;7.57;4.03;;;;;15.90;94004.00;;;;7372036;19;20125;-76
2023/06/08 05:48:46;;;;;;;5.40;3.72;;;;;16.70;94005.00;;;;7374129;19;20206;-75
2023/06/08 05:51:20;;;;;;;5.35;3.15;;;;;17.40;93999.00;;;;7370164;19;20167;-76
2023/06/08 05:54:01;;;;;;;3.95;3.53;;;;;17.90;94011.00;;;;7370722;19;20252;-77
2023/06/08 05:56:35;;;;;;;3.97;3.22;;;;;18.30;93999.00;;;;7373125;19;20462;-75
2023/06/08 05:59:03;;;;;;;4.55;3.15;;;;;18.80;93989.00;;;;7370487;19;20124;-77
2023/06/08 06:01:39;;;;;;;4.03;3.58;;;;;19.50;93993.00;;;;7371640;19;20159;-75
2023/06/08 06:04:09;;;;;;;5.68;3.63;;;;;20.10;93991.00;;;;7367717;19;20131;-74
2023/06/08 06:07:06;;;;;;;6.07;3.75;;;;;20.60;93994.00;;;;7367382;19;20165;-74
2023/06/08 06:09:34;;;;;;;3.70;3.00;;;;;20.80;93990.00;;;;7370741;19;20132;-74
2023/06/08 06:12:09;;;;;;;5.97;3.60;;;;;21.40;93989.00;;;;7371270;19;20470;-75
2023/06/08 06:14:45;;;;;;;4.45;3.13;;;;;22.10;93988.00;;;;7369763;19;20124;-76
2023/06/08 06:17:20;;;;;;;4.38;3.50;;;;;22.50;93986.00;;;;7370631;19;21721;-75
2023/06/08 06:19:55;;;;;;;5.55;3.75;;;;;22.80;93985.00;;;;7372396;19;20159;-76
2023/06/08 06:22:29;;;;;;;5.88;3.15;;;;;23.40;93982.00;;;;7368908;19;20155;-75
2023/06/08 06:25:05;;;;;;;4.05;3.30;;;;;24.00;93986.00;;;;7371864;19;20223;-74
2023/06/08 06:27:33;;;;;;;5.57;3.30;;;;;24.50;93979.00;;;;7371813;19;20125;-74
2023/06/08 06:30:16;;;;;;;4.63;3.33;;;;;25.40;93983.00;;;;7368695;19;20715;-74
2023/06/08 06:33:01;;;;;;;3.72;3.30;;;;;26.20;93983.00;;;;7368480;19;20624;-75
2023/06/08 06:35:35;;;;;;;3.40;3.10;;;;;26.20;93999.00;;;;7368604;19;20136;-77
2023/06/08 06:38:03;;;;;;;5.35;3.92;;;;;25.50;94012.00;;;;7370292;19;20133;-76
2023/06/08 06:40:44;;;;;;;3.85;3.40;;;;;24.30;94011.00;;;;7368825;19;20672;-77
2023/06/08 06:43:11;;;;;;;4.22;3.83;;;;;23.60;94021.00;;;;7368248;19;20136;-76
2023/06/08 06:45:50;;;;;;;4.47;3.70;;;;;23.20;94025.00;;;;7368315;19;20153;-76
2023/06/08 06:48:24;;;;;;;5.93;3.55;;;;;22.60;94036.00;;;;7369784;19;20199;-76
2023/06/08 06:50:58;;;;;;;5.38;3.83;;;;;22.50;94038.00;;;;7367919;19;20167;-77
2023/06/08 06:53:32;;;;;;;3.20;2.90;;;;;22.00;94041.00;;;;7367454;19;20167;-74
2023/06/08 06:56:06;;;;;;;5.15;3.30;;;;;22.00;94051.00;;;;7370972;19;20121;-74
2023/06/08 06:58:45;;;;;;;5.35;3.40;;;;;21.60;94051.00;;;;7370653;19;20192;-75
2023/06/08 07:01:23;;;;;;;3.75;3.28;;;;;21.70;94046.00;;;;7370622;19;20548;-75
2023/06/08 07:03:52;;;;;;;4.63;3.92;;;;;21.80;94058.00;;;;7372113;19;20696;-76
2023/06/08 07:06:27;;;;;;;3.88;3.47;;;;;21.90;94055.00;;;;7372781;19;20151;-75
2023/06/08 07:08:54;;;;;;;4.03;3.60;;;;;22.10;94052.00;;;;7369951;19;20731;-76
2023/06/08 07:11:30;;;;;;;3.90;3.10;;;;;21.60;94058.00;;;;7368309;19;20128;-77
2023/06/08 07:13:58;;;;;;;3.40;2.80;;;;;20.60;94065.00;;;;7368616;19;20125;-76
2023/06/08 07:16:33;;;;;;;4.65;3.05;;;;;20.20;94064.00;;;;7368398;19;20206;-77
2023/06/08 07:19:02;;;;;;;3.70;3.10;;;;;20.40;94054.00;;;;7368782;19;20124;-77
2023/06/08 07:21:39;;;;;;;3.95;3.55;;;;;21.30;94044.00;;;;7370711;19;20133;-75
2023/06/08 07:24:24;;;;;;;7.65;3.30;;;;;21.90;94045.00;;;;7371557;19;21537;-78
2023/06/08 07:27:18;;;;;;;2.60;2.40;;;;;22.90;94046.00;;;;7367101;19;20174;-76
2023/06/08 07:29:52;;;;;;;4.45;2.75;;;;;22.90;94049.00;;;;7369192;19;20486;-79
2023/06/08 07:32:20;;;;;;;4.25;3.28;;;;;24.70;94047.00;;;;7368576;19;20159;-77
2023/06/08 07:34:55;;;;;;;3.65;2.80;;;;;24.50;94043.00;;;;7369989;19;20601;-76
2023/06/08 07:37:23;;;;;;;3.45;3.05;;;;;24.70;94047.00;;;;7368241;19;20849;-76
2023/06/08 07:39:57;;;;;;;3.88;3.00;;;;;24.50;94045.00;;;;7366083;19;20158;-76
2023/06/08 07:42:39;;;;;;;4.65;3.20;;;;;24.00;94049.00;;;;7369816;19;20187;-75
2023/06/08 07:45:14;;;;;;;3.42;2.95;;;;;24.20;94049.00;;;;7367160;19;20832;-75
2023/06/08 07:47:49;;;;;;;3.65;3.17;;;;;23.40;94051.00;;;;7368337;19;20132;-76
2023/06/08 07:50:25;;;;;;;3.08;2.88;;;;;24.20;94041.00;;;;7365577;19;20132;-76
2023/06/08 07:52:53;;;;;;;3.45;3.15;;;;;24.60;94043.00;;;;7369377;19;20136;-75
2023/06/08 07:55:28;;;;;;;2.78;2.50;;;;;23.60;94051.00;;;;7367620;19;20125;-76
2023/06/08 07:57:56;;;;;;;3.75;3.05;;;;;23.90;94064.00;;;;7366395;19;20121;-75
2023/06/08 08:00:31;;;;;;;4.88;3.60;;;;;24.40;94052.00;;;;7365303;19;20143;-74
2023/06/08 08:02:59;;;;;;;7.55;3.25;;;;;24.40;94069.00;;;;7367453;19;20132;-75
2023/06/08 08:05:33;;;;;;;3.63;3.30;;;;;23.90;94072.00;;;;7366129;19;20161;-75
2023/06/08 08:08:01;;;;;;;4.63;3.22;;;;;23.90;94064.00;;;;7368131;19;20167;-76
2023/06/08 08:10:35;;;;;;;3.80;3.40;;;;;24.00;94068.00;;;;7365789;19;20129;-75
2023/06/08 08:13:11;;;;;;;9.43;4.10;;;;;23.60;94072.00;;;;7364404;19;20152;-75
2023/06/08 08:15:45;;;;;;;5.13;3.17;;;;;22.40;94077.00;;;;7367503;19;20749;-77
2023/06/08 08:18:19;;;;;;;3.85;3.45;;;;;22.80;94085.00;;;;7367286;19;20149;-78
2023/06/08 08:20:54;;;;;;;4.72;3.67;;;;;23.30;94082.00;;;;7366799;19;21172;-76
2023/06/08 08:23:28;;;;;;;3.60;3.28;;;;;22.30;94093.00;;;;7366236;19;20128;-76
2023/06/08 08:26:02;;;;;;;5.72;3.45;;;;;22.20;94082.00;;;;7367400;19;20141;-74
2023/06/08 08:28:33;;;;;;;4.05;3.10;;;;;21.70;94082.00;;;;7370500;19;20144;-75
2023/06/08 08:31:08;;;;;;;3.78;3.25;;;;;21.10;94090.00;;;;7374006;19;20135;-75
2023/06/08 08:33:36;;;;;;;5.95;3.80;;;;;21.40;94086.00;;;;7371822;19;20155;-74
2023/06/08 08:36:10;;;;;;;3.50;3.15;;;;;21.80;94091.00;;;;7375371;19;20215;-76
2023/06/08 08:38:40;;;;;;;4.65;3.55;;;;;21.80;94088.00;;;;7374893;19;20146;-76
2023/06/08 08:41:24;;;;;;;8.25;3.40;;;;;21.60;94083.00;;;;7371928;19;20210;-74
2023/06/08 08:44:04;;;;;;;4.82;2.90;;;;;21.70;94071.00;;;;7373885;19;20890;-74
2023/06/08 08:46:42;;;;;;;3.67;3.13;;;;;21.80;94064.00;;;;7376210;19;20278;-75
2023/06/08 08:49:20;;;;;;;3.95;3.20;;;;;21.90;94063.00;;;;7374903;19;20129;-74
2023/06/08 08:51:56;;;;;;;4.28;3.33;;;;;22.00;94059.00;;;;7372792;19;20128;-74
2023/06/08 08:54:31;;;;;;;3.92;3.28;;;;;22.40;94073.00;;;;7372790;19;20129;-76
2023/06/08 08:57:09;;;;;;;5.00;3.22;;;;;22.80;94065.00;;;;7373144;19;20128;-74
2023/06/08 08:59:38;;;;;;;4.07;3.30;;;;;23.20;94062.00;;;;7371344;19;20140;-75
2023/06/08 09:02:12;;;;;;;3.42;3.05;;;;;23.00;94066.00;;;;7370791;19;20177;-75
2023/06/08 09:04:40;;;;;;;3.75;3.05;;;;;22.90;94063.00;;;;7372896;19;20657;-74
2023/06/08 09:07:20;;;;;;;5.90;3.50;;;;;23.00;94054.00;;;;7375241;19;20132;-75
2023/06/08 09:10:14;;;;;;;6.53;3.42;;;;;24.30;94042.00;;;;7373428;19;20584;-76
2023/06/08 09:12:50;;;;;;;4.28;3.35;;;;;25.30;94036.00;;;;7373083;19;20210;-74
2023/06/08 09:15:32;;;;;;;4.10;3.67;;;;;25.80;94043.00;;;;7370050;19;20136;-73
2023/06/08 09:18:13;;;;;;;3.63;3.33;;;;;26.20;94040.00;;;;7370961;19;20132;-75
2023/06/08 09:21:29;;;;;;;5.18;3.47;;;;;26.10;94037.00;;;;7368669;19;20184;-76
2023/06/08 09:24:22;;;;;;;3.45;3.15;;;;;26.20;94041.00;;;;7371620;19;20153;-76
2023/06/08 09:26:58;;;;;;;5.05;3.10;;;;;26.70;94041.00;;;;7373643;19;20136;-75
2023/06/08 09:29:38;;;;;;;4.05;3.28;;;;;27.10;94036.00;;;;7371288;19;20124;-74
2023/06/08 09:32:25;;;;;;;5.20;3.63;;;;;26.60;94047.00;;;;7373601;19;20200;-76
2023/06/08 09:34:56;;;;;;;5.18;3.40;;;;;26.90;94037.00;;;;7370797;19;20152;-75
2023/06/08 09:37:37;;;;;;;3.50;3.20;;;;;27.10;94038.00;;;;7373330;19;20132;-76
2023/06/08 09:40:09;;;;;;;5.13;3.60;;;;;26.30;94045.00;;;;7373416;19;20129;-76
2023/06/08 09:42:55;;;;;;;4.38;3.17;;;;;27.10;93995.00;;;;7372201;19;20128;-79
2023/06/08 09:45:23;;;;;;;3.70;2.97;;;;;27.40;94030.00;;;;7371499;19;20195;-77
2023/06/08 09:48:11;;;;;;;3.60;3.10;;;;;28.10;94018.00;;;;7370254;19;20154;-77
2023/06/08 09:50:38;;;;;;;4.82;3.40;;;;;28.10;94023.00;;;;7374490;19;20190;-77
2023/06/08 09:53:13;;;;;;;4.80;3.47;;;;;27.90;94017.00;;;;7371833;19;20125;-78
2023/06/08 09:55:43;;;;;;;3.95;3.15;;;;;27.40;94022.00;;;;7369313;19;20675;-78
2023/06/08 09:58:20;;;;;;;3.70;3.40;;;;;28.20;94018.00;;;;7370294;19;20136;-76
2023/06/08 10:00:49;;;;;;;5.60;3.63;;;;;27.90;94009.00;;;;7370148;19;20577;-77
2023/06/08 10:03:31;;;;;;;3.35;3.05;;;;;28.80;94019.00;;;;7369210;19;20842;-77
2023/06/08 10:06:07;;;;;;;6.88;3.53;;;;;28.40;94014.00;;;;7370225;19;20165;-77
2023/06/08 10:08:37;;;;;;;5.35;3.92;;;;;29.00;94008.00;;;;7372776;19;20134;-77
2023/06/08 10:11:13;;;;;;;3.78;3.35;;;;;28.70;94012.00;;;;7371797;19;20136;-76
2023/06/08 10:13:48;;;;;;;3.72;3.38;;;;;28.50;94008.00;;;;7369577;19;20474;-77
2023/06/08 10:16:16;;;;;;;4.32;3.33;;;;;28.50;94014.00;;;;7370017;19;20148;-76
2023/06/08 10:18:51;;;;;;;4.43;3.53;;;;;28.70;94005.00;;;;7372374;19;20608;-78
2023/06/08 10:21:26;;;;;;;4.00;3.60;;;;;29.00;94008.00;;;;7370852;19;20809;-77
2023/06/08 10:23:56;;;;;;;8.27;3.95;;;;;29.60;94010.00;;;;7372415;19;20125;-78
2023/06/08 10:26:32;;;;;;;5.65;3.58;;;;;29.80;94007.00;;;;7373346;19;20213;-79
2023/06/08 10:29:10;;;;;;;5.88;3.72;;;;;29.90;94002.00;;;;7368861;19;20162;-76
2023/06/08 10:31:50;;;;;;;6.03;3.22;;;;;29.90;94006.00;;;;7370481;19;20155;-77
2023/06/08 10:34:18;;;;;;;5.63;3.50;;;;;29.80;94008.00;;;;7372407;19;20133;-76
2023/06/08 10:36:54;;;;;;;5.90;4.20;;;;;29.60;94005.00;;;;7370077;19;20592;-76
2023/06/08 10:39:21;;;;;;;7.10;3.30;;;;;30.00;94007.00;;;;7369959;19;20132;-77
2023/06/08 10:42:02;;;;;;;7.40;3.83;;;;;29.30;94009.00;;;;7369116;19;20655;-77
2023/06/08 10:44:40;;;;;;;4.93;4.05;;;;;28.80;94038.00;;;;7368885;19;20577;-76
2023/06/08 10:47:17;;;;;;;5.60;4.00;;;;;27.80;94043.00;;;;7368588;19;20156;-78
2023/06/08 10:49:50;;;;;;;3.97;3.65;;;;;26.70;94045.00;;;;7369527;19;20128;-75
2023/06/08 10:52:26;;;;;;;4.40;3.92;;;;;27.10;94026.00;;;;7367702;19;20513;-76
2023/06/08 10:55:11;;;;;;;5.15;3.60;;;;;28.80;93987.00;;;;7369859;19;20123;-75
2023/06/08 10:58:05;;;;;;;6.80;4.00;;;;;30.50;93984.00;;;;7368356;19;20120;-76
2023/06/08 11:00:43;;;;;;;4.68;4.00;;;;;31.50;94000.00;;;;7369173;19;20197;-76
2023/06/08 11:03:23;;;;;;;4.00;3.60;;;;;31.50;93978.00;;;;7368146;19;20556;-77
2023/06/08 11:05:57;;;;;;;5.00;4.05;;;;;32.40;93993.00;;;;7371848;19;23249;-78
2023/06/08 11:08:34;;;;;;;6.20;3.88;;;;;31.30;93972.00;;;;7368954;19;20148;-78
2023/06/08 11:11:03;;;;;;;6.50;4.13;;;;;31.80;93979.00;;;;7369350;19;20128;-76
2023/06/08 11:13:38;;;;;;;4.20;3.80;;;;;31.80;93986.00;;;;7367507;19;20183;-78
2023/06/08 11:16:05;;;;;;;8.00;4.45;;;;;32.30;93987.00;;;;7369709;19;20141;-75
2023/06/08 11:18:40;;;;;;;4.22;3.80;;;;;32.40;93986.00;;;;7366586;19;20123;-77
2023/06/08 11:21:08;;;;;;;4.95;4.22;;;;;31.40;93987.00;;;;7368425;19;20135;-76
2023/06/08 11:23:44;;;;;;;4.45;4.05;;;;;31.80;93985.00;;;;7369989;19;20690;-77
2023/06/08 11:26:21;;;;;;;5.35;3.80;;;;;31.40;93985.00;;;;7369211;19;20135;-76
2023/06/08 11:28:50;;;;;;;4.68;4.20;;;;;31.40;93975.00;;;;7365943;19;20158;-74
2023/06/08 11:31:32;;;;;;;5.05;4.28;;;;;31.30;93972.00;;;;7369724;19;20131;-77
2023/06/08 11:34:00;;;;;;;5.60;4.13;;;;;31.40;93961.00;;;;7369418;19;20150;-76
2023/06/08 11:36:38;;;;;;;4.30;3.90;;;;;31.00;93961.00;;;;7367538;19;20566;-76
2023/06/08 11:39:12;;;;;;;4.97;3.83;;;;;30.70;93962.00;;;;7366638;19;20144;-77
2023/06/08 11:41:53;;;;;;;4.40;4.00;;;;;30.40;93949.00;;;;7369074;19;20518;-77
2023/06/08 11:44:27;;;;;;;3.80;3.50;;;;;30.70;93947.00;;;;7370183;19;20597;-77
2023/06/08 11:47:06;;;;;;;4.68;4.28;;;;;30.70;93971.00;;;;7367329;19;20150;-79
2023/06/08 11:49:54;;;;;;;5.35;3.95;;;;;30.90;93974.00;;;;7367033;19;20124;-77
2023/06/08 11:52:30;;;;;;;4.15;3.75;;;;;29.00;93995.00;;;;7366667;19;20124;-77
2023/06/08 11:55:11;;;;;;;5.97;4.50;;;;;28.10;93993.00;;;;7367981;19;20124;-78
2023/06/08 11:57:54;;;;;;;6.15;3.95;;;;;28.60;93943.00;;;;7365373;19;20128;-77
2023/06/08 12:00:27;;;;;;;4.35;3.95;;;;;29.70;93939.00;;;;7366365;19;20843;-77
2023/06/08 12:03:04;;;;;;;5.28;4.10;;;;;31.10;93933.00;;;;7367796;19;20481;-79
2023/06/08 12:05:35;;;;;;;4.90;4.22;;;;;30.70;93973.00;;;;7372318;19;20120;-77
2023/06/08 12:08:14;;;;;;;5.15;4.30;;;;;29.90;93944.00;;;;7374411;19;20466;-79
2023/06/08 12:10:53;;;;;;;4.50;4.10;;;;;28.60;93977.00;;;;7373386;19;20141;-78
2023/06/08 12:13:31;;;;;;;4.68;4.25;;;;;27.30;93967.00;;;;7373787;19;20128;-77
2023/06/08 12:16:00;;;;;;;6.00;4.53;;;;;26.10;93941.00;;;;7374983;19;21727;-76
2023/06/08 12:18:41;;;;;;;4.55;4.07;;;;;28.60;93913.00;;;;7373549;19;20140;-79
2023/06/08 12:21:40;;;;;;;7.35;4.60;;;;;29.60;93967.00;;;;7372953;19;20141;-78
2023/06/08 12:24:09;;;;;;;7.43;4.10;;;;;28.40;93972.00;;;;7372838;19;20144;-76
2023/06/08 12:26:43;;;;;;;4.93;3.75;;;;;27.00;93969.00;;;;7373865;19;20132;-78
2023/06/08 12:29:11;;;;;;;10.82;4.88;;;;;26.00;93977.00;;;;7371401;19;20634;-76
2023/06/08 12:31:39;;;;;;;5.10;4.60;;;;;25.10;93975.00;;;;7373437;19;20614;-77
2023/06/08 12:34:12;;;;;;;7.68;4.90;;;;;24.60;93934.00;;;;7373496;19;20167;-76
2023/06/08 12:36:40;;;;;;;6.03;3.97;;;;;23.70;93994.00;;;;7371689;19;20148;-77
2023/06/08 12:39:15;;;;;;;7.53;4.97;;;;;23.50;94007.00;;;;7376146;19;20589;-76
2023/06/08 12:41:51;;;;;;;8.02;4.30;;;;;21.60;94002.00;;;;7373991;19;20243;-75
2023/06/08 12:44:26;;;;;;;7.80;4.70;;;;;20.00;94015.00;;;;7373789;19;20496;-76
2023/06/08 12:47:02;;;;;;;4.55;4.15;;;;;18.60;94020.00;;;;7372026;19;20517;-76
2023/06/08 12:49:30;;;;;;;5.00;4.50;;;;;18.10;94017.00;;;;7373292;19;20212;-75
2023/06/08 12:52:05;;;;;;;5.88;5.10;;;;;17.60;94027.00;;;;7373981;19;20133;-76
2023/06/08 12:54:33;;;;;;;5.43;4.28;;;;;17.50;94028.00;;;;7373467;19;20816;-76
2023/06/08 12:57:07;;;;;;;12.55;5.13;;;;;17.20;94033.00;;;;7374066;19;20132;-75